createdAt,value
2019-02-05T00:00:09.991Z,23.34
2019-02-05T00:01:09.988Z,23.38
2019-02-05T00:02:09.969Z,23.41
2019-02-05T00:03:09.976Z,23.34
2019-02-05T00:04:09.953Z,23.37
2019-02-05T00:05:09.963Z,23.40
2019-02-05T00:06:09.938Z,23.34
2019-02-05T00:07:09.931Z,23.34
2019-02-05T00:08:09.901Z,23.35
2019-02-05T00:09:09.893Z,23.44
2019-02-05T00:10:09.900Z,23.42
2019-02-05T00:11:09.883Z,23.44
2019-02-05T00:12:09.859Z,23.37
2019-02-05T00:13:09.852Z,23.38
2019-02-05T00:14:09.837Z,23.40
2019-02-05T00:15:09.831Z,23.42
2019-02-05T00:16:09.838Z,23.40
2019-02-05T00:17:09.804Z,23.41
2019-02-05T00:18:09.803Z,23.40
2019-02-05T00:19:09.798Z,23.37
2019-02-05T00:20:09.773Z,23.42
2019-02-05T00:21:09.851Z,23.38
2019-02-05T00:22:09.748Z,23.41
2019-02-05T00:23:09.740Z,23.37
2019-02-05T00:24:09.727Z,23.42
2019-02-05T00:25:09.736Z,23.40
2019-02-05T00:26:09.742Z,23.41
2019-02-05T00:27:09.693Z,23.32
2019-02-05T00:28:09.692Z,23.41
2019-02-05T00:29:09.675Z,23.35
2019-02-05T00:30:09.660Z,23.45
2019-02-05T00:31:09.666Z,23.38
2019-02-05T00:32:09.638Z,23.42
2019-02-05T00:33:09.745Z,23.41
2019-02-05T00:34:09.619Z,23.35
2019-02-05T00:35:09.610Z,23.40
2019-02-05T00:36:09.629Z,23.34
2019-02-05T00:37:09.585Z,23.45
2019-02-05T00:38:09.575Z,23.41
2019-02-05T00:39:09.566Z,23.44
2019-02-05T00:40:09.552Z,23.44
2019-02-05T00:41:09.573Z,23.34
2019-02-05T00:42:09.536Z,23.41
2019-02-05T00:43:09.520Z,23.37
2019-02-05T00:44:09.507Z,23.40
2019-02-05T00:45:09.501Z,23.40
2019-02-05T00:46:09.492Z,23.41
2019-02-05T00:47:09.490Z,23.45
2019-02-05T00:48:09.473Z,23.38
2019-02-05T00:49:09.476Z,23.41
2019-02-05T00:50:09.444Z,23.34
2019-02-05T00:51:09.448Z,23.38
2019-02-05T00:52:09.433Z,23.41
2019-02-05T00:53:09.421Z,23.40
2019-02-05T00:54:09.397Z,23.44
2019-02-05T00:55:09.391Z,23.35
2019-02-05T00:56:17.299Z,23.37
2019-02-05T00:57:10.395Z,23.50
2019-02-05T00:58:09.352Z,23.44
2019-02-05T00:59:09.365Z,23.40
2019-02-05T01:00:09.334Z,23.42
2019-02-05T01:01:09.326Z,23.38
2019-02-05T01:02:09.323Z,23.44
2019-02-05T01:03:09.298Z,23.44
2019-02-05T01:04:09.290Z,23.42
2019-02-05T01:05:09.275Z,23.40
2019-02-05T01:06:09.265Z,23.45
2019-02-05T01:07:09.272Z,23.44
2019-02-05T01:08:09.248Z,23.48
2019-02-05T01:09:09.237Z,23.34
2019-02-05T01:10:09.220Z,23.45
2019-02-05T01:11:09.212Z,23.40
2019-02-05T01:12:09.237Z,23.37
2019-02-05T01:13:09.188Z,23.41
2019-02-05T01:14:09.177Z,23.38
2019-02-05T01:15:09.169Z,23.38
2019-02-05T01:16:09.171Z,23.44
2019-02-05T01:17:09.163Z,23.45
2019-02-05T01:18:09.151Z,23.41
2019-02-05T01:19:09.120Z,23.35
2019-02-05T01:20:09.109Z,23.42
2019-02-05T01:21:09.100Z,23.41
2019-02-05T01:22:09.120Z,23.35
2019-02-05T01:23:09.079Z,23.41
2019-02-05T01:24:09.069Z,23.40
2019-02-05T01:25:09.095Z,23.34
2019-02-05T01:26:09.049Z,23.40
2019-02-05T01:27:09.047Z,23.52
2019-02-05T01:28:09.028Z,23.53
2019-02-05T01:29:09.012Z,23.38
2019-02-05T01:30:09.002Z,23.40
2019-02-05T01:31:08.991Z,23.38
2019-02-05T01:32:08.992Z,23.44
2019-02-05T01:33:08.986Z,23.34
2019-02-05T01:34:08.960Z,23.47
2019-02-05T01:35:08.965Z,23.44
2019-02-05T01:36:08.934Z,23.37
2019-02-05T01:37:08.937Z,23.38
2019-02-05T01:38:08.921Z,23.38
2019-02-05T01:39:08.904Z,23.40
2019-02-05T01:40:08.893Z,23.40
2019-02-05T01:41:08.885Z,23.42
2019-02-05T01:42:08.885Z,23.42
2019-02-05T01:43:08.887Z,23.34
2019-02-05T01:44:08.848Z,23.42
2019-02-05T01:45:08.854Z,23.35
2019-02-05T01:46:08.825Z,23.40
2019-02-05T01:47:08.816Z,23.42
2019-02-05T01:48:08.815Z,23.38
2019-02-05T01:49:08.803Z,23.44
2019-02-05T01:50:08.797Z,23.42
2019-02-05T01:51:08.777Z,23.48
2019-02-05T01:52:08.781Z,23.41
2019-02-05T01:53:08.760Z,23.35
2019-02-05T01:54:08.739Z,23.50
2019-02-05T01:55:08.727Z,23.42
2019-02-05T01:56:08.729Z,23.41
2019-02-05T01:57:08.710Z,23.44
2019-02-05T01:58:08.724Z,23.35
2019-02-05T01:59:08.695Z,23.38
2019-02-05T02:00:08.678Z,23.41
2019-02-05T02:01:08.669Z,23.41
2019-02-05T02:02:08.656Z,23.41
2019-02-05T02:03:08.650Z,23.40
2019-02-05T02:04:08.630Z,23.37
2019-02-05T02:05:08.617Z,23.40
2019-02-05T02:06:08.605Z,23.44
2019-02-05T02:07:08.608Z,23.37
2019-02-05T02:08:08.632Z,23.42
2019-02-05T02:09:08.577Z,23.41
2019-02-05T02:10:08.567Z,23.44
2019-02-05T02:11:08.556Z,23.38
2019-02-05T02:12:08.541Z,23.42
2019-02-05T02:13:08.542Z,23.41
2019-02-05T02:14:08.516Z,23.41
2019-02-05T02:15:08.507Z,23.35
2019-02-05T02:16:08.499Z,23.44
2019-02-05T02:17:08.494Z,23.41
2019-02-05T02:18:08.486Z,23.40
2019-02-05T02:19:08.487Z,23.41
2019-02-05T02:20:08.457Z,23.34
2019-02-05T02:21:08.446Z,23.40
2019-02-05T02:22:08.435Z,23.52
2019-02-05T02:23:08.430Z,23.45
2019-02-05T02:24:08.424Z,23.45
2019-02-05T02:25:08.403Z,23.42
2019-02-05T02:26:08.388Z,23.37
2019-02-05T02:27:08.382Z,23.47
2019-02-05T02:28:08.381Z,23.40
2019-02-05T02:29:08.365Z,23.35
2019-02-05T02:30:08.364Z,23.38
2019-02-05T02:31:08.356Z,23.47
2019-02-05T02:32:08.319Z,23.38
2019-02-05T02:33:08.330Z,23.38
2019-02-05T02:34:08.307Z,23.40
2019-02-05T02:35:08.292Z,23.37
2019-02-05T02:36:08.275Z,23.41
2019-02-05T02:37:08.266Z,23.35
2019-02-05T02:38:08.276Z,23.44
2019-02-05T02:39:08.245Z,23.35
2019-02-05T02:40:08.239Z,23.47
2019-02-05T02:41:08.238Z,23.44
2019-02-05T02:42:08.212Z,23.41
2019-02-05T02:43:08.215Z,23.37
2019-02-05T02:44:08.191Z,23.41
2019-02-05T02:45:08.177Z,23.42
2019-02-05T02:46:08.174Z,23.44
2019-02-05T02:47:08.155Z,23.40
2019-02-05T02:48:08.157Z,23.40
2019-02-05T02:49:08.145Z,23.41
2019-02-05T02:50:08.124Z,23.45
2019-02-05T02:51:08.136Z,23.42
2019-02-05T02:52:08.110Z,23.34
2019-02-05T02:53:08.112Z,23.41
2019-02-05T02:54:08.085Z,23.44
2019-02-05T02:55:08.070Z,23.41
2019-02-05T02:56:08.058Z,23.42
2019-02-05T02:57:08.048Z,23.42
2019-02-05T02:58:08.050Z,23.41
2019-02-05T02:59:08.025Z,23.42
2019-02-05T03:00:08.016Z,23.42
2019-02-05T03:01:08.009Z,23.41
2019-02-05T03:02:07.991Z,23.41
2019-02-05T03:03:07.980Z,23.44
2019-02-05T03:04:07.984Z,23.48
2019-02-05T03:05:07.959Z,23.48
2019-02-05T03:06:07.953Z,23.42
2019-02-05T03:07:07.949Z,23.40
2019-02-05T03:08:07.932Z,23.35
2019-02-05T03:09:07.935Z,23.41
2019-02-05T03:10:07.903Z,23.44
2019-02-05T03:11:07.891Z,23.41
2019-02-05T03:12:07.883Z,23.42
2019-02-05T03:13:07.875Z,23.37
2019-02-05T03:14:07.873Z,23.44
2019-02-05T03:15:07.854Z,23.41
2019-02-05T03:16:07.929Z,23.41
2019-02-05T03:17:07.836Z,23.40
2019-02-05T03:18:07.817Z,23.48
2019-02-05T03:19:07.816Z,23.40
2019-02-05T03:20:07.794Z,23.41
2019-02-05T03:21:07.780Z,23.41
2019-02-05T03:22:07.777Z,23.37
2019-02-05T03:23:07.764Z,23.41
2019-02-05T03:24:07.762Z,23.38
2019-02-05T03:25:07.741Z,23.40
2019-02-05T03:26:07.731Z,23.41
2019-02-05T03:27:17.161Z,23.40
2019-02-05T03:28:08.705Z,23.45
2019-02-05T03:29:07.770Z,23.38
2019-02-05T03:30:07.690Z,23.40
2019-02-05T03:31:07.682Z,23.35
2019-02-05T03:32:07.700Z,23.38
2019-02-05T03:33:07.655Z,23.41
2019-02-05T03:34:07.652Z,23.47
2019-02-05T03:35:07.629Z,23.37
2019-02-05T03:36:07.620Z,23.45
2019-02-05T03:37:07.608Z,23.40
2019-02-05T03:38:07.596Z,23.40
2019-02-05T03:39:07.603Z,23.45
2019-02-05T03:40:07.591Z,23.37
2019-02-05T03:41:07.564Z,23.48
2019-02-05T03:42:07.550Z,23.38
2019-02-05T03:43:07.557Z,23.40
2019-02-05T03:44:07.555Z,23.41
2019-02-05T03:45:07.522Z,23.52
2019-02-05T03:46:07.513Z,23.47
2019-02-05T03:47:07.496Z,23.47
2019-02-05T03:48:07.490Z,23.50
2019-02-05T03:49:07.490Z,23.42
2019-02-05T03:50:07.493Z,23.41
2019-02-05T03:51:07.461Z,23.47
2019-02-05T03:52:07.447Z,23.47
2019-02-05T03:53:07.438Z,23.41
2019-02-05T03:54:07.523Z,23.48
2019-02-05T03:55:07.435Z,23.38
2019-02-05T03:56:07.402Z,23.37
2019-02-05T03:57:07.391Z,23.41
2019-02-05T03:58:07.378Z,23.47
2019-02-05T03:59:07.377Z,23.38
2019-02-05T04:00:07.370Z,23.45
2019-02-05T04:01:07.351Z,23.45
2019-02-05T04:02:07.332Z,23.35
2019-02-05T04:03:07.367Z,23.44
2019-02-05T04:04:07.336Z,23.45
2019-02-05T04:05:07.298Z,23.38
2019-02-05T04:06:07.293Z,23.45
2019-02-05T04:07:07.281Z,23.44
2019-02-05T04:08:07.271Z,23.45
2019-02-05T04:09:07.277Z,23.41
2019-02-05T04:10:07.260Z,23.44
2019-02-05T04:11:07.232Z,23.40
2019-02-05T04:12:07.262Z,23.41
2019-02-05T04:13:07.235Z,23.41
2019-02-05T04:14:07.303Z,23.41
2019-02-05T04:15:07.188Z,23.42
2019-02-05T04:16:07.182Z,23.45
2019-02-05T04:17:07.174Z,23.38
2019-02-05T04:18:07.159Z,23.42
2019-02-05T04:19:07.153Z,23.41
2019-02-05T04:20:07.131Z,23.47
2019-02-05T04:21:07.123Z,23.45
2019-02-05T04:22:07.112Z,23.41
2019-02-05T04:23:07.114Z,23.41
2019-02-05T04:24:07.100Z,23.42
2019-02-05T04:25:07.086Z,23.42
2019-02-05T04:26:07.072Z,23.41
2019-02-05T04:27:07.058Z,23.41
2019-02-05T04:28:07.050Z,23.40
2019-02-05T04:29:07.104Z,23.38
2019-02-05T04:30:07.025Z,23.44
2019-02-05T04:31:07.019Z,23.42
2019-02-05T04:32:07.004Z,23.47
2019-02-05T04:33:06.989Z,23.42
2019-02-05T04:34:06.996Z,23.45
2019-02-05T04:35:06.993Z,23.41
2019-02-05T04:36:06.976Z,23.48
2019-02-05T04:37:06.950Z,23.37
2019-02-05T04:38:06.942Z,23.42
2019-02-05T04:39:06.932Z,23.44
2019-02-05T04:40:06.931Z,23.40
2019-02-05T04:41:06.905Z,23.40
2019-02-05T04:42:06.891Z,23.42
2019-02-05T04:43:06.886Z,23.42
2019-02-05T04:44:06.876Z,23.44
2019-02-05T04:45:06.874Z,23.42
2019-02-05T04:46:06.850Z,23.42
2019-02-05T04:47:06.837Z,23.40
2019-02-05T04:48:06.828Z,23.38
2019-02-05T04:49:06.819Z,23.42
2019-02-05T04:50:06.817Z,23.44
2019-02-05T04:51:06.804Z,23.37
2019-02-05T04:52:06.788Z,23.41
2019-02-05T04:53:06.776Z,23.35
2019-02-05T04:54:06.761Z,23.47
2019-02-05T04:55:06.763Z,23.35
2019-02-05T04:56:06.738Z,23.41
2019-02-05T04:57:06.733Z,23.37
2019-02-05T04:58:06.726Z,23.41
2019-02-05T04:59:06.717Z,23.38
2019-02-05T05:00:06.705Z,23.45
2019-02-05T05:01:06.686Z,23.40
2019-02-05T05:02:06.674Z,23.40
2019-02-05T05:03:06.662Z,23.42
2019-02-05T05:04:06.657Z,23.42
2019-02-05T05:05:06.663Z,23.41
2019-02-05T05:06:06.645Z,23.37
2019-02-05T05:07:06.618Z,23.40
2019-02-05T05:08:06.607Z,23.34
2019-02-05T05:09:06.604Z,23.40
2019-02-05T05:10:06.597Z,23.41
2019-02-05T05:11:06.597Z,23.44
2019-02-05T05:12:06.564Z,23.45
2019-02-05T05:13:06.554Z,23.38
2019-02-05T05:14:06.558Z,23.48
2019-02-05T05:15:06.541Z,23.45
2019-02-05T05:16:06.522Z,23.42
2019-02-05T05:17:06.513Z,23.41
2019-02-05T05:18:06.499Z,23.38
2019-02-05T05:19:06.496Z,23.41
2019-02-05T05:20:06.503Z,23.44
2019-02-05T05:21:06.467Z,23.41
2019-02-05T05:22:06.472Z,23.45
2019-02-05T05:23:06.446Z,23.34
2019-02-05T05:24:06.442Z,23.34
2019-02-05T05:25:06.431Z,23.42
2019-02-05T05:26:06.437Z,23.44
2019-02-05T05:27:06.401Z,23.45
2019-02-05T05:28:10.194Z,23.44
2019-02-05T05:29:06.400Z,23.38
2019-02-05T05:30:06.365Z,23.32
2019-02-05T05:31:06.374Z,23.34
2019-02-05T05:32:06.343Z,23.38
2019-02-05T05:33:06.333Z,23.35
2019-02-05T05:34:06.349Z,23.41
2019-02-05T05:35:06.314Z,23.37
2019-02-05T05:36:06.308Z,23.35
2019-02-05T05:37:06.296Z,23.40
2019-02-05T05:38:06.275Z,23.38
2019-02-05T05:39:06.271Z,23.38
2019-02-05T05:40:06.260Z,23.40
2019-02-05T05:41:06.256Z,23.34
2019-02-05T05:42:06.235Z,23.32
2019-02-05T05:43:06.226Z,23.37
2019-02-05T05:44:09.380Z,23.34
2019-02-05T05:45:06.212Z,23.47
2019-02-05T05:46:06.199Z,23.42
2019-02-05T05:47:06.183Z,23.40
2019-02-05T05:48:06.171Z,23.41
2019-02-05T05:49:06.159Z,23.37
2019-02-05T05:50:06.196Z,23.41
2019-02-05T05:51:06.145Z,23.35
2019-02-05T05:52:06.138Z,23.34
2019-02-05T05:53:06.121Z,23.42
2019-02-05T05:54:06.100Z,23.34
2019-02-05T05:55:06.122Z,23.35
2019-02-05T05:56:06.106Z,23.41
2019-02-05T05:57:06.076Z,23.45
2019-02-05T05:58:06.245Z,23.41
2019-02-05T05:59:06.057Z,23.41
2019-02-05T06:00:06.039Z,23.35
2019-02-05T06:01:06.037Z,23.41
2019-02-05T06:02:06.013Z,23.35
2019-02-05T06:03:06.020Z,23.41
2019-02-05T06:04:06.003Z,23.42
2019-02-05T06:05:05.990Z,23.37
2019-02-05T06:06:06.005Z,23.34
2019-02-05T06:07:05.967Z,23.47
2019-02-05T06:08:05.957Z,23.41
2019-02-05T06:09:05.938Z,23.41
2019-02-05T06:10:07.124Z,23.40
2019-02-05T06:11:05.934Z,23.34
2019-02-05T06:12:05.902Z,23.44
2019-02-05T06:13:05.904Z,23.40
2019-02-05T06:14:05.881Z,23.41
2019-02-05T06:15:05.966Z,23.40
2019-02-05T06:16:05.890Z,23.41
2019-02-05T06:17:05.848Z,23.41
2019-02-05T06:18:05.861Z,23.41
2019-02-05T06:19:05.835Z,23.41
2019-02-05T06:20:05.819Z,23.35
2019-02-05T06:21:05.821Z,23.44
2019-02-05T06:22:05.806Z,23.35
2019-02-05T06:23:05.783Z,23.42
2019-02-05T06:24:05.784Z,23.44
2019-02-05T06:25:05.784Z,23.35
2019-02-05T06:26:05.770Z,23.44
2019-02-05T06:27:05.740Z,23.37
2019-02-05T06:28:05.730Z,23.42
2019-02-05T06:29:05.719Z,23.35
2019-02-05T06:30:05.707Z,23.41
2019-02-05T06:31:05.719Z,23.34
2019-02-05T06:32:05.684Z,23.34
2019-02-05T06:33:05.679Z,23.41
2019-02-05T06:34:05.663Z,23.47
2019-02-05T06:35:05.652Z,23.41
2019-02-05T06:36:05.652Z,23.48
2019-02-05T06:37:05.634Z,23.41
2019-02-05T06:38:05.618Z,23.44
2019-02-05T06:39:05.613Z,23.40
2019-02-05T06:40:05.599Z,23.40
2019-02-05T06:41:05.607Z,23.40
2019-02-05T06:42:05.586Z,23.41
2019-02-05T06:43:05.567Z,23.42
2019-02-05T06:44:05.551Z,23.40
2019-02-05T06:45:05.540Z,23.45
2019-02-05T06:46:05.540Z,23.41
2019-02-05T06:47:05.531Z,23.41
2019-02-05T06:48:05.514Z,23.38
2019-02-05T06:49:05.498Z,23.40
2019-02-05T06:50:05.486Z,23.41
2019-02-05T06:51:05.476Z,23.42
2019-02-05T06:52:05.478Z,23.41
2019-02-05T06:53:05.455Z,23.42
2019-02-05T06:54:05.455Z,23.45
2019-02-05T06:55:05.435Z,23.47
2019-02-05T06:56:05.428Z,23.38
2019-02-05T06:57:05.421Z,23.41
2019-02-05T06:58:05.420Z,23.44
2019-02-05T06:59:05.388Z,23.42
2019-02-05T07:00:05.380Z,23.37
2019-02-05T07:01:05.368Z,23.45
2019-02-05T07:02:05.373Z,23.44
2019-02-05T07:03:05.355Z,23.41
2019-02-05T07:04:05.346Z,23.44
2019-02-05T07:05:05.339Z,23.41
2019-02-05T07:06:05.310Z,23.50
2019-02-05T07:07:05.310Z,23.42
2019-02-05T07:08:05.290Z,23.40
2019-02-05T07:09:05.286Z,23.38
2019-02-05T07:10:05.270Z,23.45
2019-02-05T07:11:05.254Z,23.47
2019-02-05T07:12:05.262Z,23.45
2019-02-05T07:13:05.246Z,23.47
2019-02-05T07:14:05.223Z,23.44
2019-02-05T07:15:05.212Z,23.48
2019-02-05T07:16:05.211Z,23.44
2019-02-05T07:17:05.215Z,23.42
2019-02-05T07:18:05.178Z,23.50
2019-02-05T07:19:05.169Z,23.47
2019-02-05T07:20:05.160Z,23.48
2019-02-05T07:21:05.145Z,23.44
2019-02-05T07:22:05.159Z,23.48
2019-02-05T07:23:05.145Z,23.48
2019-02-05T07:24:05.115Z,23.47
2019-02-05T07:25:05.104Z,23.42
2019-02-05T07:26:05.098Z,23.44
2019-02-05T07:27:05.115Z,23.41
2019-02-05T07:28:05.072Z,23.50
2019-02-05T07:29:05.058Z,23.44
2019-02-05T07:30:05.053Z,23.41
2019-02-05T07:31:05.044Z,23.48
2019-02-05T07:32:05.040Z,23.48
2019-02-05T07:33:05.015Z,23.47
2019-02-05T07:34:05.006Z,23.47
2019-02-05T07:35:04.997Z,23.52
2019-02-05T07:36:04.985Z,23.50
2019-02-05T07:37:05.014Z,23.52
2019-02-05T07:38:04.966Z,23.50
2019-02-05T07:39:04.948Z,23.55
2019-02-05T07:40:04.943Z,23.50
2019-02-05T07:41:04.929Z,23.45
2019-02-05T07:42:04.914Z,23.52
2019-02-05T07:43:04.917Z,23.55
2019-02-05T07:44:04.897Z,23.55
2019-02-05T07:45:04.889Z,23.50
2019-02-05T07:46:04.877Z,23.53
2019-02-05T07:47:04.898Z,23.52
2019-02-05T07:48:04.861Z,23.47
2019-02-05T07:49:04.845Z,23.57
2019-02-05T07:50:04.842Z,23.45
2019-02-05T07:51:04.825Z,23.45
2019-02-05T07:52:04.809Z,23.55
2019-02-05T07:53:04.822Z,23.48
2019-02-05T07:54:04.783Z,23.48
2019-02-05T07:55:04.779Z,23.50
2019-02-05T07:56:04.762Z,23.55
2019-02-05T07:57:04.751Z,23.53
2019-02-05T07:58:04.752Z,23.47
2019-02-05T07:59:10.314Z,23.56
2019-02-05T08:00:05.718Z,23.57
2019-02-05T08:01:04.824Z,23.53
2019-02-05T08:02:04.695Z,23.47
2019-02-05T08:03:04.703Z,23.57
2019-02-05T08:04:04.683Z,23.55
2019-02-05T08:05:04.663Z,23.57
2019-02-05T08:06:04.676Z,23.52
2019-02-05T08:07:07.523Z,23.48
2019-02-05T08:08:04.639Z,23.59
2019-02-05T08:09:04.623Z,23.52
2019-02-05T08:10:04.608Z,23.48
2019-02-05T08:11:04.598Z,23.55
2019-02-05T08:12:04.585Z,23.48
2019-02-05T08:13:04.603Z,23.56
2019-02-05T08:14:06.194Z,23.55
2019-02-05T08:15:04.555Z,23.56
2019-02-05T08:16:04.544Z,23.57
2019-02-05T08:17:04.532Z,23.53
2019-02-05T08:18:04.531Z,23.52
2019-02-05T08:19:04.511Z,23.59
2019-02-05T08:20:04.506Z,23.56
2019-02-05T08:21:04.493Z,23.57
2019-02-05T08:22:04.478Z,23.55
2019-02-05T08:23:04.498Z,23.50
2019-02-05T08:24:04.518Z,23.52
2019-02-05T08:25:04.454Z,23.57
2019-02-05T08:26:04.448Z,23.52
2019-02-05T08:27:04.422Z,23.52
2019-02-05T08:28:04.424Z,23.56
2019-02-05T08:29:04.399Z,23.48
2019-02-05T08:30:04.388Z,23.53
2019-02-05T08:31:04.382Z,23.55
2019-02-05T08:32:04.370Z,23.53
2019-02-05T08:33:04.373Z,23.50
2019-02-05T08:34:04.346Z,23.56
2019-02-05T08:35:04.342Z,23.52
2019-02-05T08:36:04.345Z,23.55
2019-02-05T08:37:04.312Z,23.52
2019-02-05T08:38:04.326Z,23.55
2019-02-05T08:39:04.288Z,23.55
2019-02-05T08:40:04.294Z,23.52
2019-02-05T08:41:04.273Z,23.50
2019-02-05T08:42:04.268Z,23.52
2019-02-05T08:43:04.251Z,23.55
2019-02-05T08:44:04.249Z,23.53
2019-02-05T08:45:04.226Z,23.56
2019-02-05T08:46:04.213Z,23.57
2019-02-05T08:47:04.205Z,23.55
2019-02-05T08:48:04.191Z,23.56
2019-02-05T08:49:04.190Z,23.56
2019-02-05T08:50:04.169Z,23.55
2019-02-05T08:51:04.161Z,23.57
2019-02-05T08:52:04.148Z,23.53
2019-02-05T08:53:04.137Z,23.56
2019-02-05T08:54:04.142Z,23.55
2019-02-05T08:55:04.120Z,23.52
2019-02-05T08:56:04.111Z,23.57
2019-02-05T08:57:04.092Z,23.56
2019-02-05T08:58:04.082Z,23.57
2019-02-05T08:59:04.107Z,23.52
2019-02-05T09:00:04.058Z,23.56
2019-02-05T09:01:04.049Z,23.64
2019-02-05T09:02:04.038Z,23.56
2019-02-05T09:03:04.036Z,23.48
2019-02-05T09:04:04.029Z,23.53
2019-02-05T09:05:04.004Z,23.53
2019-02-05T09:06:03.996Z,23.56
2019-02-05T09:07:03.983Z,23.57
2019-02-05T09:08:03.969Z,23.55
2019-02-05T09:09:03.990Z,23.59
2019-02-05T09:10:03.950Z,23.57
2019-02-05T09:11:03.939Z,23.57
2019-02-05T09:12:03.941Z,23.52
2019-02-05T09:13:03.915Z,23.59
2019-02-05T09:14:10.895Z,23.59
2019-02-05T09:15:04.893Z,23.56
2019-02-05T09:16:03.894Z,23.53
2019-02-05T09:17:03.875Z,23.53
2019-02-05T09:18:03.862Z,23.60
2019-02-05T09:19:03.864Z,23.57
2019-02-05T09:20:03.842Z,23.55
2019-02-05T09:21:03.833Z,23.56
2019-02-05T09:22:03.828Z,23.56
2019-02-05T09:23:03.815Z,23.55
2019-02-05T09:24:03.804Z,23.57
2019-02-05T09:25:03.789Z,23.55
2019-02-05T09:26:03.775Z,23.56
2019-02-05T09:27:03.910Z,23.57
2019-02-05T09:28:03.752Z,23.52
2019-02-05T09:29:03.789Z,23.55
2019-02-05T09:30:03.729Z,23.56
2019-02-05T09:31:03.724Z,23.55
2019-02-05T09:32:03.723Z,23.56
2019-02-05T09:33:03.701Z,23.62
2019-02-05T09:34:03.690Z,23.63
2019-02-05T09:35:03.696Z,23.59
2019-02-05T09:36:03.663Z,23.55
2019-02-05T09:37:03.653Z,23.57
2019-02-05T09:38:03.679Z,23.60
2019-02-05T09:39:03.630Z,23.56
2019-02-05T09:40:03.632Z,23.63
2019-02-05T09:41:03.608Z,23.66
2019-02-05T09:42:03.596Z,23.62
2019-02-05T09:43:03.588Z,23.55
2019-02-05T09:44:03.604Z,23.70
2019-02-05T09:45:03.587Z,23.59
2019-02-05T09:46:03.561Z,23.59
2019-02-05T09:47:03.543Z,23.55
2019-02-05T09:48:03.532Z,23.55
2019-02-05T09:49:03.520Z,23.57
2019-02-05T09:50:03.527Z,23.52
2019-02-05T09:51:03.507Z,23.52
2019-02-05T09:52:03.487Z,23.63
2019-02-05T09:53:03.478Z,23.56
2019-02-05T09:54:03.469Z,23.53
2019-02-05T09:55:03.488Z,23.66
2019-02-05T09:56:03.447Z,23.53
2019-02-05T09:57:03.439Z,23.63
2019-02-05T09:58:03.421Z,23.64
2019-02-05T09:59:03.415Z,23.60
2019-02-05T10:00:03.413Z,23.63
2019-02-05T10:01:03.407Z,23.64
2019-02-05T10:02:03.380Z,23.60
2019-02-05T10:03:03.369Z,23.53
2019-02-05T10:04:03.355Z,23.64
2019-02-05T10:05:03.357Z,23.66
2019-02-05T10:06:03.361Z,23.55
2019-02-05T10:07:03.331Z,23.59
2019-02-05T10:08:03.318Z,23.56
2019-02-05T10:09:03.303Z,23.63
2019-02-05T10:10:03.336Z,23.64
2019-02-05T10:11:03.281Z,23.53
2019-02-05T10:12:03.267Z,23.64
2019-02-05T10:13:03.258Z,23.55
2019-02-05T10:14:03.251Z,23.67
2019-02-05T10:15:03.234Z,23.55
2019-02-05T10:16:03.235Z,23.53
2019-02-05T10:17:03.213Z,23.64
2019-02-05T10:18:03.218Z,23.64
2019-02-05T10:19:03.193Z,23.64
2019-02-05T10:20:03.192Z,23.63
2019-02-05T10:21:03.181Z,23.64
2019-02-05T10:22:03.156Z,23.60
2019-02-05T10:23:03.146Z,23.60
2019-02-05T10:24:03.139Z,23.70
2019-02-05T10:25:03.127Z,23.59
2019-02-05T10:26:03.127Z,23.64
2019-02-05T10:27:03.112Z,23.60
2019-02-05T10:28:03.092Z,23.66
2019-02-05T10:29:03.090Z,23.67
2019-02-05T10:30:03.080Z,23.72
2019-02-05T10:31:03.078Z,23.59
2019-02-05T10:32:03.053Z,23.66
2019-02-05T10:33:03.043Z,23.71
2019-02-05T10:34:03.027Z,23.72
2019-02-05T10:35:03.015Z,23.59
2019-02-05T10:36:03.020Z,23.72
2019-02-05T10:37:03.003Z,23.57
2019-02-05T10:38:02.982Z,23.72
2019-02-05T10:39:02.974Z,23.72
2019-02-05T10:40:02.965Z,23.60
2019-02-05T10:41:02.980Z,23.57
2019-02-05T10:42:02.941Z,23.72
2019-02-05T10:43:02.942Z,23.71
2019-02-05T10:44:02.917Z,23.67
2019-02-05T10:45:02.907Z,23.71
2019-02-05T10:46:02.914Z,23.60
2019-02-05T10:47:02.885Z,23.70
2019-02-05T10:48:02.882Z,23.66
2019-02-05T10:49:03.419Z,23.57
2019-02-05T10:50:02.853Z,23.71
2019-02-05T10:51:02.853Z,23.56
2019-02-05T10:52:02.838Z,23.70
2019-02-05T10:53:02.817Z,23.71
2019-02-05T10:54:02.814Z,23.59
2019-02-05T10:55:02.805Z,23.57
2019-02-05T10:56:02.807Z,23.63
2019-02-05T10:57:02.789Z,23.63
2019-02-05T10:58:02.763Z,23.62
2019-02-05T10:59:02.751Z,23.62
2019-02-05T11:00:08.948Z,23.70
2019-02-05T11:01:03.738Z,23.57
2019-02-05T11:02:02.719Z,23.70
2019-02-05T11:03:02.709Z,23.70
2019-02-05T11:04:02.724Z,23.70
2019-02-05T11:05:02.718Z,23.59
2019-02-05T11:06:02.701Z,23.72
2019-02-05T11:07:02.665Z,23.66
2019-02-05T11:08:02.663Z,23.60
2019-02-05T11:09:02.640Z,23.59
2019-02-05T11:10:02.632Z,23.66
2019-02-05T11:11:02.630Z,23.66
2019-02-05T11:12:02.613Z,23.63
2019-02-05T11:13:02.597Z,23.74
2019-02-05T11:14:02.595Z,23.59
2019-02-05T11:15:02.574Z,23.71
2019-02-05T11:16:02.578Z,23.56
2019-02-05T11:17:02.553Z,23.67
2019-02-05T11:18:02.543Z,23.66
2019-02-05T11:19:02.537Z,23.60
2019-02-05T11:20:02.521Z,23.59
2019-02-05T11:21:04.337Z,23.57
2019-02-05T11:22:02.504Z,23.59
2019-02-05T11:23:02.491Z,23.70
2019-02-05T11:24:02.583Z,23.72
2019-02-05T11:25:02.471Z,23.70
2019-02-05T11:26:02.465Z,23.64
2019-02-05T11:27:02.475Z,23.70
2019-02-05T11:28:02.445Z,23.72
2019-02-05T11:29:02.421Z,23.62
2019-02-05T11:30:02.412Z,23.67
2019-02-05T11:31:02.401Z,23.62
2019-02-05T11:32:02.401Z,23.62
2019-02-05T11:33:02.378Z,23.67
2019-02-05T11:34:02.364Z,23.64
2019-02-05T11:35:02.356Z,23.64
2019-02-05T11:36:02.346Z,23.64
2019-02-05T11:37:02.366Z,23.67
2019-02-05T11:38:02.326Z,23.66
2019-02-05T11:39:02.314Z,23.71
2019-02-05T11:40:02.301Z,23.67
2019-02-05T11:41:02.290Z,23.63
2019-02-05T11:42:02.291Z,23.67
2019-02-05T11:43:02.271Z,23.64
2019-02-05T11:44:02.268Z,23.66
2019-02-05T11:45:02.254Z,23.63
2019-02-05T11:46:02.234Z,23.63
2019-02-05T11:47:10.240Z,23.67
2019-02-05T11:48:09.226Z,23.72
2019-02-05T11:49:09.217Z,23.71
2019-02-05T11:50:02.210Z,23.72
2019-02-05T11:51:09.191Z,23.57
2019-02-05T11:52:09.895Z,23.52
2019-02-05T11:53:09.172Z,23.50
2019-02-05T11:54:02.145Z,23.57
2019-02-05T11:55:02.145Z,23.50
2019-02-05T11:56:02.124Z,23.55
2019-02-05T11:57:02.124Z,23.55
2019-02-05T11:58:02.111Z,23.57
2019-02-05T11:59:02.091Z,23.57
2019-02-05T12:00:02.104Z,23.53
2019-02-05T12:01:02.070Z,23.55
2019-02-05T12:02:02.068Z,23.53
2019-02-05T12:03:02.048Z,23.48
2019-02-05T12:04:02.044Z,23.59
2019-02-05T12:05:02.032Z,23.52
2019-02-05T12:06:02.016Z,23.57
2019-02-05T12:07:02.015Z,23.55
2019-02-05T12:08:01.993Z,23.55
2019-02-05T12:09:01.982Z,23.50
2019-02-05T12:10:01.975Z,23.55
2019-02-05T12:11:01.961Z,23.53
2019-02-05T12:12:01.965Z,23.57
2019-02-05T12:13:01.949Z,23.53
2019-02-05T12:14:01.949Z,23.56
2019-02-05T12:15:01.914Z,23.56
2019-02-05T12:16:01.911Z,23.56
2019-02-05T12:17:01.904Z,23.56
2019-02-05T12:18:01.883Z,23.59
2019-02-05T12:19:01.869Z,23.56
2019-02-05T12:20:01.865Z,23.56
2019-02-05T12:21:01.849Z,23.60
2019-02-05T12:22:01.850Z,23.48
2019-02-05T12:23:01.846Z,23.64
2019-02-05T12:24:01.819Z,23.63
2019-02-05T12:25:01.808Z,23.60
2019-02-05T12:26:01.795Z,23.52
2019-02-05T12:27:01.795Z,23.60
2019-02-05T12:28:01.776Z,23.67
2019-02-05T12:29:01.764Z,23.57
2019-02-05T12:30:01.773Z,23.62
2019-02-05T12:31:01.739Z,23.60
2019-02-05T12:32:01.745Z,23.59
2019-02-05T12:33:02.084Z,23.70
2019-02-05T12:34:01.723Z,23.71
2019-02-05T12:35:01.704Z,23.57
2019-02-05T12:36:01.694Z,23.60
2019-02-05T12:37:01.706Z,23.59
2019-02-05T12:38:01.666Z,23.60
2019-02-05T12:39:01.652Z,23.64
2019-02-05T12:40:01.643Z,23.70
2019-02-05T12:41:01.629Z,23.57
2019-02-05T12:42:01.650Z,23.63
2019-02-05T12:43:01.618Z,23.71
2019-02-05T12:44:01.597Z,23.64
2019-02-05T12:45:01.588Z,23.75
2019-02-05T12:46:01.595Z,23.64
2019-02-05T12:47:01.583Z,23.74
2019-02-05T12:48:01.569Z,23.66
2019-02-05T12:49:01.544Z,23.64
2019-02-05T12:50:01.609Z,23.67
2019-02-05T12:51:01.523Z,23.63
2019-02-05T12:52:01.508Z,23.72